Dobbs Ferry, New York
Current Conditions -  °F | °C
As of 4:56 AM on Sunday 26 Oct 2014 (Local Time) from KHPN Reporting Station
Clear Clear  
Wind Chill: 51°   Ceiling: Unl
Heat Index: 51°   Visibility: 10mi
Dew Point: 41°   Wind: 14mph
Humidity: 68%   Direction: 300°WNW
Pressure: 29.56"   Gusts: NA
Location:  41.02°N, 73.87°W
Report Text: KHPN 260856Z 30012KT 10SM CLR 11/05 A2956 RMK AO2 PK WND 33026/0800 SLP011 T01060050 53006
Loading
Personal Weather Stations






























Interactive Weather Map New forecast layout! Learn more

10-Day Weather Forecast

Advertisements
Track Severe Weather on mobile